Station Historical Data
Daily Summary for March 16, 2012 Units:  Metric    English   Both
« Previous Day
Next Day »
Daily Weekly Monthly Yearly Custom
  High: Low: Average:
Temperature: 23.6 °C 14.8 °C 18.3 °C
Dew Point: 17.2 °C 13.8 °C 14.9 °C
Humidity: 94% 58% 82%
Wind Speed: 16.1km/h 0km/h 4.3km/h
Wind Gust: 20.9km/h - -
Wind- - South
Pressure: 1021.9 hPa 1018.5 hPa -
Precipitation: 0.25 mm    
Historical Graphs
 
 
Tabular Data for March 16, 2012
Time Temperature Dew Point Pressure Wind Wind Speed Wind Gust Humidity Rainfall Rate (Hourly) Conditions
00:00 16 °C 14.7 °C 1020.9 hPa SE 1.6 km/h 6.4 km/h 92% 0 mm
00:01 16 °C 14.7 °C 1020.9 hPa SE 3.2 km/h 4.8 km/h 92% 0 mm
00:06 15.9 °C 14.7 °C 1020.9 hPa SE 4.8 km/h 4.8 km/h 92% 0 mm
00:11 15.9 °C 14.7 °C 1020.5 hPa ESE 8 km/h 8 km/h 92% 0 mm
00:16 16 °C 14.7 °C 1020.5 hPa East 6.4 km/h 8 km/h 92% 0 mm
00:21 16 °C 14.7 °C 1020.9 hPa ESE 1.6 km/h 6.4 km/h 92% 0 mm
00:26 16.1 °C 14.8 °C 1020.9 hPa ESE 6.4 km/h 9.7 km/h 92% 0 mm
00:31 16.1 °C 14.8 °C 1020.9 hPa SSE 6.4 km/h 11.3 km/h 92% 0 mm
00:36 16.1 °C 14.8 °C 1020.5 hPa SE 3.2 km/h 6.4 km/h 92% 0 mm
00:41 16.1 °C 14.8 °C 1020.9 hPa SE 4.8 km/h 6.4 km/h 92% 0 mm
00:46 16.1 °C 14.8 °C 1020.9 hPa ESE 4.8 km/h 4.8 km/h 92% 0 mm
00:51 15.9 °C 14.7 °C 1020.5 hPa ESE 3.2 km/h 6.4 km/h 92% 0 mm
00:56 15.9 °C 14.6 °C 1020.5 hPa East 3.2 km/h 4.8 km/h 92% 0 mm
01:01 15.8 °C 14.5 °C 1020.5 hPa East 3.2 km/h 3.2 km/h 92% 0 mm
01:06 15.7 °C 14.4 °C 1020.5 hPa ENE 3.2 km/h 3.2 km/h 92% 0 mm
01:11 15.6 °C 14.5 °C 1020.5 hPa East 3.2 km/h 3.2 km/h 93% 0 mm
01:16 15.6 °C 14.3 °C 1020.5 hPa ESE 3.2 km/h 3.2 km/h 92% 0 mm
01:21 15.5 °C 14.4 °C 1020.5 hPa East 1.6 km/h 3.2 km/h 93% 0 mm
01:26 15.4 °C 14.3 °C 1020.5 hPa ESE 1.6 km/h 3.2 km/h 93% 0 mm
01:31 15.3 °C 14.2 °C 1020.5 hPa ESE 1.6 km/h 3.2 km/h 93% 0 mm
01:37 15.4 °C 14.3 °C 1020.2 hPa East 4.8 km/h 4.8 km/h 93% 0 mm
01:42 15.4 °C 14.3 °C 1020.2 hPa East 6.4 km/h 8 km/h 93% 0 mm
01:47 15.4 °C 14.3 °C 1020.2 hPa ESE 4.8 km/h 8 km/h 93% 0 mm
01:52 15.5 °C 14.4 °C 1020.2 hPa ESE 6.4 km/h 9.7 km/h 93% 0 mm
01:57 15.6 °C 14.5 °C 1020.2 hPa ESE 11.3 km/h 11.3 km/h 93% 0 mm
02:02 15.7 °C 14.6 °C 1020.2 hPa ESE 8 km/h 9.7 km/h 93% 0 mm
02:07 15.6 °C 14.5 °C 1019.9 hPa ESE 9.7 km/h 9.7 km/h 93% 0 mm
02:12 15.6 °C 14.4 °C 1019.9 hPa ESE 9.7 km/h 9.7 km/h 93% 0 mm
02:17 15.6 °C 14.5 °C 1019.9 hPa ESE 8 km/h 11.3 km/h 93% 0 mm
02:22 15.7 °C 14.6 °C 1019.9 hPa SE 6.4 km/h 9.7 km/h 93% 0 mm
02:27 15.7 °C 14.6 °C 1019.9 hPa SE 3.2 km/h 6.4 km/h 93% 0 mm
02:32 15.7 °C 14.6 °C 1019.9 hPa SE 1.6 km/h 3.2 km/h 93% 0 mm
02:37 15.7 °C 14.6 °C 1019.9 hPa SE 4.8 km/h 6.4 km/h 93% 0 mm
02:42 15.6 °C 14.5 °C 1019.9 hPa SE 3.2 km/h 6.4 km/h 93% 0 mm
02:47 15.6 °C 14.4 °C 1019.9 hPa SE 3.2 km/h 4.8 km/h 93% 0 mm
02:52 15.6 °C 14.4 °C 1019.9 hPa SE 3.2 km/h 6.4 km/h 93% 0 mm
02:57 15.6 °C 14.4 °C 1019.5 hPa SE 3.2 km/h 6.4 km/h 93% 0 mm
03:02 15.6 °C 14.5 °C 1019.5 hPa SE 3.2 km/h 6.4 km/h 93% 0 mm
03:07 15.7 °C 14.6 °C 1019.5 hPa SSE 3.2 km/h 6.4 km/h 93% 0 mm
03:12 15.7 °C 14.6 °C 1019.5 hPa SE 6.4 km/h 9.7 km/h 93% 0 mm
03:17 15.7 °C 14.6 °C 1019.2 hPa SSE 4.8 km/h 11.3 km/h 93% 0 mm
03:22 15.7 °C 14.6 °C 1019.2 hPa SE 8 km/h 9.7 km/h 93% 0 mm
03:27 15.6 °C 14.5 °C 1019.2 hPa SSE 4.8 km/h 6.4 km/h 93% 0 mm
03:32 15.5 °C 14.4 °C 1018.8 hPa SE 4.8 km/h 4.8 km/h 93% 0 mm
03:37 15.4 °C 14.3 °C 1018.8 hPa South 3.2 km/h 6.4 km/h 93% 0 mm
03:42 15.4 °C 14.3 °C 1018.8 hPa SSE 3.2 km/h 4.8 km/h 93% 0 mm
03:47 15.4 °C 14.3 °C 1018.5 hPa SSE 3.2 km/h 3.2 km/h 93% 0 mm
03:52 15.4 °C 14.3 °C 1018.5 hPa SE 3.2 km/h 3.2 km/h 93% 0 mm
03:57 15.4 °C 14.3 °C 1018.5 hPa SE 3.2 km/h 3.2 km/h 93% 0 mm
04:02 15.4 °C 14.3 °C 1018.8 hPa South 3.2 km/h 3.2 km/h 93% 0 mm
04:07 15.5 °C 14.4 °C 1018.5 hPa SSE 3.2 km/h 4.8 km/h 93% 0 mm
04:12 15.6 °C 14.4 °C 1018.5 hPa SSE 4.8 km/h 6.4 km/h 93% 0 mm
04:17 15.6 °C 14.5 °C 1018.5 hPa SSE 3.2 km/h 4.8 km/h 93% 0 mm
04:22 15.7 °C 14.6 °C 1018.5 hPa SE 4.8 km/h 6.4 km/h 93% 0 mm
04:27 15.6 °C 14.5 °C 1018.5 hPa SE 4.8 km/h 6.4 km/h 93% 0 mm
04:32 15.7 °C 14.4 °C 1018.5 hPa SSE 1.6 km/h 6.4 km/h 92% 0 mm
04:37 15.7 °C 14.6 °C 1018.5 hPa SE 1.6 km/h 3.2 km/h 93% 0 mm
04:42 15.6 °C 14.3 °C 1018.8 hPa SE 1.6 km/h 3.2 km/h 92% 0 mm
04:47 15.5 °C 14.2 °C 1018.8 hPa SE 1.6 km/h 3.2 km/h 92% 0 mm
04:52 15.5 °C 14.4 °C 1018.5 hPa SE 4.8 km/h 4.8 km/h 93% 0 mm
04:57 15.6 °C 14.4 °C 1018.8 hPa SE 6.4 km/h 6.4 km/h 93% 0 mm
05:02 15.6 °C 14.4 °C 1018.8 hPa SE 6.4 km/h 8 km/h 93% 0 mm
05:07 15.6 °C 14.4 °C 1018.5 hPa SE 4.8 km/h 11.3 km/h 93% 0 mm
05:12 15.6 °C 14.5 °C 1018.5 hPa SE 8 km/h 9.7 km/h 93% 0 mm
05:17 15.7 °C 14.6 °C 1018.8 hPa SE 8 km/h 9.7 km/h 93% 0 mm
05:22 15.6 °C 14.5 °C 1018.8 hPa SSE 4.8 km/h 9.7 km/h 93% 0 mm
05:27 15.6 °C 14.4 °C 1018.8 hPa ESE 3.2 km/h 6.4 km/h 93% 0 mm
05:32 15.6 °C 14.4 °C 1018.8 hPa SE 4.8 km/h 6.4 km/h 93% 0 mm
05:38 15.5 °C 14.4 °C 1019.2 hPa SSW 1.6 km/h 3.2 km/h 93% 0 mm
05:43 15.4 °C 14.3 °C 1019.2 hPa Calm   1.6 km/h 93% 0 mm
05:48 15.4 °C 14.3 °C 1019.2 hPa Calm   1.6 km/h 93% 0 mm
05:53 15.5 °C 14.6 °C 1019.2 hPa ESE 4.8 km/h 6.4 km/h 94% 0 mm
05:58 15.6 °C 14.4 °C 1019.2 hPa SE 3.2 km/h 4.8 km/h 93% 0 mm
06:03 15.6 °C 14.4 °C 1018.8 hPa SE 6.4 km/h 6.4 km/h 93% 0 mm
06:08 15.6 °C 14.5 °C 1018.8 hPa SE 4.8 km/h 8 km/h 93% 0 mm
06:13 15.7 °C 14.6 °C 1019.2 hPa SE 4.8 km/h 6.4 km/h 93% 0 mm
06:18 15.6 °C 14.5 °C 1019.2 hPa SE 4.8 km/h 6.4 km/h 93% 0 mm
06:23 15.6 °C 14.5 °C 1019.2 hPa SSE 6.4 km/h 6.4 km/h 93% 0 mm
06:28 15.7 °C 14.6 °C 1019.2 hPa SE 4.8 km/h 8 km/h 93% 0 mm
06:33 15.7 °C 14.6 °C 1019.2 hPa SE 4.8 km/h 6.4 km/h 93% 0 mm
06:38 15.8 °C 14.7 °C 1019.2 hPa ESE 6.4 km/h 9.7 km/h 93% 0 mm
06:43 15.9 °C 14.8 °C 1019.5 hPa ESE 6.4 km/h 8 km/h 93% 0 mm
06:48 15.9 °C 14.8 °C 1019.5 hPa SE 4.8 km/h 6.4 km/h 93% 0 mm
06:53 15.9 °C 14.8 °C 1019.5 hPa SE 4.8 km/h 8 km/h 93% 0 mm
06:58 15.8 °C 14.7 °C 1019.5 hPa SE 4.8 km/h 8 km/h 93% 0 mm
07:03 15.8 °C 14.7 °C 1019.5 hPa SSE 4.8 km/h 6.4 km/h 93% 0 mm
07:08 15.8 °C 14.7 °C 1019.5 hPa ESE 8 km/h 8 km/h 93% 0 mm
07:13 15.7 °C 14.6 °C 1019.5 hPa ESE 4.8 km/h 8 km/h 93% 0 mm
07:18 15.6 °C 14.4 °C 1019.9 hPa ESE 3.2 km/h 8 km/h 93% 0 mm
07:23 15.4 °C 14.3 °C 1019.9 hPa ESE 1.6 km/h 4.8 km/h 93% 0 mm
07:28 15.2 °C 14.1 °C 1019.9 hPa East 1.6 km/h 3.2 km/h 93% 0 mm
07:33 15.1 °C 13.9 °C 1019.9 hPa ESE 3.2 km/h 3.2 km/h 93% 0 mm
07:38 15 °C 14.1 °C 1019.9 hPa ESE 3.2 km/h 4.8 km/h 94% 0 mm
07:43 14.9 °C 13.9 °C 1019.9 hPa Calm   4.8 km/h 94% 0 mm
07:48 14.8 °C 13.8 °C 1019.9 hPa Calm     94% 0 mm
07:53 14.8 °C 13.9 °C 1019.9 hPa ESE 3.2 km/h 3.2 km/h 94% 0 mm
07:58 14.9 °C 13.9 °C 1020.2 hPa ESE 4.8 km/h 4.8 km/h 94% 0 mm
08:03 14.9 °C 14 °C 1020.2 hPa SE 4.8 km/h 4.8 km/h 94% 0 mm
08:09 15 °C 14.1 °C 1020.2 hPa SE 3.2 km/h 6.4 km/h 94% 0 mm
08:14 15.1 °C 14.2 °C 1020.2 hPa SE 3.2 km/h 6.4 km/h 94% 0 mm
08:19 15.3 °C 14.4 °C 1020.2 hPa SSE 6.4 km/h 6.4 km/h 94% 0 mm
08:24 15.5 °C 14.6 °C 1020.2 hPa SE 4.8 km/h 8 km/h 94% 0 mm
08:29 15.6 °C 14.5 °C 1020.2 hPa SE 4.8 km/h 8 km/h 93% 0 mm
08:34 15.7 °C 14.6 °C 1020.5 hPa SE 4.8 km/h 6.4 km/h 93% 0 mm
08:39 15.9 °C 14.8 °C 1020.5 hPa SE 6.4 km/h 8 km/h 93% 0 mm
08:44 15.9 °C 14.8 °C 1020.5 hPa SE 6.4 km/h 8 km/h 93% 0 mm
08:49 16 °C 14.9 °C 1020.5 hPa SSE 4.8 km/h 6.4 km/h 93% 0 mm
08:54 16.1 °C 14.9 °C 1020.5 hPa SSE 4.8 km/h 6.4 km/h 93% 0 mm
08:59 16.1 °C 14.8 °C 1020.5 hPa SE 4.8 km/h 9.7 km/h 92% 0 mm
09:04 16.1 °C 14.8 °C 1020.9 hPa South 4.8 km/h 8 km/h 92% 0 mm
09:09 16.1 °C 14.8 °C 1020.9 hPa East 3.2 km/h 4.8 km/h 92% 0 mm
09:14 16.1 °C 14.8 °C 1020.9 hPa Calm   3.2 km/h 92% 0 mm
09:19 16.1 °C 14.8 °C 1020.9 hPa SSE 1.6 km/h 3.2 km/h 92% 0 mm
09:24 16.1 °C 14.8 °C 1020.9 hPa SSE 4.8 km/h 6.4 km/h 92% 0 mm
09:29 16.1 °C 14.8 °C 1020.5 hPa SE 3.2 km/h 4.8 km/h 92% 0 mm
09:34 16.2 °C 14.9 °C 1020.5 hPa SE 3.2 km/h 6.4 km/h 92% 0 mm
09:39 16.2 °C 14.9 °C 1020.5 hPa SE 8 km/h 8 km/h 92% 0 mm
09:44 16.3 °C 15 °C 1020.5 hPa South 4.8 km/h 6.4 km/h 92% 0 mm
09:49 16.3 °C 15.1 °C 1020.5 hPa SSE 4.8 km/h 6.4 km/h 92% 0 mm
09:54 16.4 °C 15.1 °C 1020.9 hPa SE 3.2 km/h 3.2 km/h 92% 0 mm
09:59 16.5 °C 15.2 °C 1020.9 hPa SE 4.8 km/h 4.8 km/h 92% 0 mm
10:04 16.6 °C 15.3 °C 1020.9 hPa SE 3.2 km/h 6.4 km/h 92% 0 mm
10:09 16.7 °C 15.4 °C 1020.9 hPa SE 4.8 km/h 6.4 km/h 92% 0 mm
10:14 16.8 °C 15.3 °C 1020.9 hPa SE 4.8 km/h 4.8 km/h 91% 0 mm
10:19 16.9 °C 15.4 °C 1020.9 hPa SE 6.4 km/h 6.4 km/h 91% 0 mm
10:24 17 °C 15.3 °C 1021.2 hPa Calm   4.8 km/h 90% 0 mm
10:30 17.2 °C 15.7 °C 1021.2 hPa West 1.6 km/h 3.2 km/h 91% 0 mm
10:35 17.3 °C 15.6 °C 1021.2 hPa Calm   3.2 km/h 90% 0 mm
10:40 17.4 °C 15.8 °C 1021.6 hPa West 1.6 km/h 4.8 km/h 90% 0 mm
10:45 17.5 °C 15.8 °C 1021.6 hPa WNW 3.2 km/h 4.8 km/h 90% 0 mm
10:50 17.7 °C 16 °C 1021.6 hPa WNW 1.6 km/h 4.8 km/h 90% 0 mm
10:55 17.7 °C 16.2 °C 1021.6 hPa SSW 3.2 km/h 4.8 km/h 91% 0 mm
11:00 17.7 °C 15.9 °C 1021.6 hPa WSW 3.2 km/h 4.8 km/h 89% 0 mm
11:05 17.7 °C 15.9 °C 1021.6 hPa WSW 4.8 km/h 6.4 km/h 89% 0 mm
11:10 17.8 °C 15.9 °C 1021.6 hPa WSW 3.2 km/h 4.8 km/h 89% 0 mm
11:15 17.8 °C 15.9 °C 1021.6 hPa WSW 3.2 km/h 6.4 km/h 89% 0 mm
11:20 17.8 °C 16 °C 1021.6 hPa West 1.6 km/h 3.2 km/h 89% 0 mm
11:25 17.8 °C 16 °C 1021.6 hPa West 3.2 km/h 4.8 km/h 89% 0 mm
11:30 17.9 °C 16.2 °C 1021.6 hPa West 3.2 km/h 6.4 km/h 90% 0 mm
11:35 17.9 °C 16.1 °C 1021.6 hPa WNW 1.6 km/h 3.2 km/h 89% 0 mm
11:40 18 °C 16.2 °C 1021.6 hPa WNW 4.8 km/h 4.8 km/h 89% 0 mm
11:45 18.1 °C 16.1 °C 1021.6 hPa West 4.8 km/h 6.4 km/h 88% 0 mm
11:47 18.1 °C 16.1 °C 1021.6 hPa West 3.2 km/h 6.4 km/h 88% 0 mm
11:52 18.2 °C 16.2 °C 1021.6 hPa WNW 3.2 km/h 6.4 km/h 88% 0 mm
11:57 18.2 °C 16.2 °C 1021.6 hPa West 3.2 km/h 6.4 km/h 88% 0 mm
12:02 18.4 °C 16.4 °C 1021.6 hPa WNW 4.8 km/h 8 km/h 88% 0 mm
12:07 18.6 °C 16.3 °C 1021.6 hPa WNW 9.7 km/h 9.7 km/h 87% 0 mm
12:12 18.6 °C 16.3 °C 1021.9 hPa NNW 3.2 km/h 8 km/h 87% 0 mm
12:17 18.6 °C 16.2 °C 1021.9 hPa WNW 4.8 km/h 8 km/h 86% 0 mm
12:22 18.7 °C 16.3 °C 1021.9 hPa NW 6.4 km/h 8 km/h 86% 0 mm
12:27 18.8 °C 16.4 °C 1021.9 hPa WNW 4.8 km/h 9.7 km/h 86% 0 mm
12:32 18.8 °C 16.2 °C 1021.9 hPa WNW 4.8 km/h 9.7 km/h 85% 0 mm
12:37 19 °C 16.8 °C 1021.9 hPa West 1.6 km/h 4.8 km/h 87% 0 mm
12:42 18.9 °C 16.3 °C 1021.9 hPa WNW 3.2 km/h 6.4 km/h 85% 0 mm
12:47 18.9 °C 16.3 °C 1021.6 hPa WNW 4.8 km/h 4.8 km/h 85% 0 mm
12:52 18.9 °C 16.3 °C 1021.6 hPa NW 1.6 km/h 3.2 km/h 85% 0 mm
12:57 19 °C 16.4 °C 1021.6 hPa Calm   3.2 km/h 85% 0 mm
13:02 19.4 °C 16.8 °C 1021.6 hPa SE 1.6 km/h 4.8 km/h 85% 0 mm
13:07 19.7 °C 16.8 °C 1021.6 hPa Calm   3.2 km/h 83% 0 mm
13:12 19.8 °C 17.1 °C 1021.6 hPa West 3.2 km/h 6.4 km/h 84% 0 mm
13:17 19.9 °C 16.9 °C 1021.9 hPa WSW 8 km/h 8 km/h 83% 0 mm
13:22 19.8 °C 16.6 °C 1021.9 hPa West 1.6 km/h 8 km/h 82% 0 mm
13:28 19.7 °C 16.6 °C 1021.9 hPa WNW 4.8 km/h 9.7 km/h 82% 0 mm
13:33 19.9 °C 17.2 °C 1021.6 hPa WSW 8 km/h 11.3 km/h 84% 0 mm
13:38 19.9 °C 16.6 °C 1021.6 hPa West 4.8 km/h 11.3 km/h 81% 0 mm
13:43 20.1 °C 16.9 °C 1021.6 hPa WSW 6.4 km/h 9.7 km/h 82% 0 mm
13:48 20.1 °C 16.6 °C 1021.6 hPa SSW 12.9 km/h 14.5 km/h 80% 0 mm
13:53 20.1 °C 16.1 °C 1021.2 hPa WSW 12.9 km/h 14.5 km/h 78% 0 mm
13:58 20 °C 16.2 °C 1020.9 hPa West 4.8 km/h 8 km/h 79% 0 mm
14:03 20.1 °C 16.2 °C 1020.9 hPa WSW 3.2 km/h 6.4 km/h 78% 0 mm
14:08 20.1 °C 15.7 °C 1020.5 hPa SW 9.7 km/h 9.7 km/h 76% 0 mm
14:13 20 °C 15.8 °C 1020.5 hPa West 8 km/h 11.3 km/h 77% 0 mm
14:18 20 °C 15.8 °C 1020.5 hPa WNW 6.4 km/h 8 km/h 77% 0 mm
14:23 20.3 °C 16.2 °C 1020.5 hPa WSW 9.7 km/h 9.7 km/h 77% 0 mm
14:28 20.7 °C 16.1 °C 1020.5 hPa WSW 9.7 km/h 14.5 km/h 75% 0 mm
14:33 20.8 °C 15.8 °C 1020.5 hPa WSW 8 km/h 14.5 km/h 73% 0 mm
14:38 20.9 °C 16.1 °C 1020.5 hPa SW 11.3 km/h 11.3 km/h 74% 0 mm
14:43 21.1 °C 16.4 °C 1020.2 hPa WSW 6.4 km/h 11.3 km/h 75% 0 mm
14:48 21.5 °C 16.2 °C 1020.2 hPa SSW 1.6 km/h 6.4 km/h 72% 0 mm
14:53 21.8 °C 16.8 °C 1020.2 hPa WSW 3.2 km/h 14.5 km/h 73% 0 mm
14:58 22.1 °C 16.4 °C 1020.2 hPa SW 8 km/h 20.9 km/h 70% 0 mm
15:03 22.1 °C 15.7 °C 1019.9 hPa SW 6.4 km/h 17.7 km/h 67% 0 mm
15:08 21.8 °C 16.1 °C 1019.9 hPa SW 8 km/h 17.7 km/h 70% 0 mm
15:13 21.7 °C 15.6 °C 1019.9 hPa WSW 11.3 km/h 19.3 km/h 68% 0 mm
15:18 21.8 °C 16.6 °C 1019.5 hPa SSW 8 km/h 12.9 km/h 72% 0 mm
15:23 22.4 °C 16.4 °C 1019.5 hPa SW 8 km/h 14.5 km/h 69% 0 mm
15:28 22.8 °C 16.4 °C 1019.5 hPa SW 16.1 km/h 17.7 km/h 67% 0 mm
15:33 23 °C 16.1 °C 1019.2 hPa SW 6.4 km/h 16.1 km/h 65% 0 mm
15:39 22.8 °C 15.9 °C 1019.2 hPa WSW 6.4 km/h 12.9 km/h 65% 0 mm
15:44 22.7 °C 15.6 °C 1019.2 hPa SSW 9.7 km/h 11.3 km/h 64% 0 mm
15:49 22.6 °C 14.7 °C 1019.5 hPa SSW 11.3 km/h 16.1 km/h 61% 0 mm
15:54 22.5 °C 15.3 °C 1019.5 hPa WSW 9.7 km/h 12.9 km/h 64% 0 mm
15:59 22.5 °C 15.3 °C 1019.2 hPa SW 12.9 km/h 16.1 km/h 64% 0 mm
16:04 22.7 °C 15.8 °C 1019.2 hPa WSW 9.7 km/h 16.1 km/h 65% 0 mm
16:09 22.7 °C 14.8 °C 1019.2 hPa SW 11.3 km/h 16.1 km/h 61% 0 mm
16:14 22.6 °C 14.7 °C 1019.2 hPa SW 9.7 km/h 17.7 km/h 61% 0 mm
16:19 22.5 °C 14.1 °C 1019.2 hPa WSW 4.8 km/h 16.1 km/h 59% 0 mm
16:24 22.5 °C 14.3 °C 1019.2 hPa WSW 4.8 km/h 12.9 km/h 60% 0 mm
16:29 22.5 °C 14.6 °C 1019.2 hPa SW 11.3 km/h 17.7 km/h 61% 0 mm
16:34 22.4 °C 14.8 °C 1019.2 hPa SW 6.4 km/h 14.5 km/h 62% 0 mm
16:39 22.6 °C 14.2 °C 1019.2 hPa SSW 9.7 km/h 14.5 km/h 59% 0 mm
16:44 22.6 °C 14.2 °C 1018.8 hPa WSW 9.7 km/h 19.3 km/h 59% 0 mm
16:49 22.7 °C 14.5 °C 1018.8 hPa SSW 8 km/h 11.3 km/h 60% 0 mm
16:54 22.8 °C 14.9 °C 1018.8 hPa WSW 6.4 km/h 11.3 km/h 61% 0 mm
16:59 23.1 °C 14.4 °C 1018.8 hPa WSW 9.7 km/h 12.9 km/h 58% 0 mm
17:04 23.6 °C 15.1 °C 1018.8 hPa West 8 km/h 14.5 km/h 59% 0 mm
17:09 23.6 °C 15.1 °C 1018.8 hPa WSW 12.9 km/h 17.7 km/h 59% 0 mm
17:14 23.4 °C 14.7 °C 1018.8 hPa WNW 6.4 km/h 12.9 km/h 58% 0 mm
17:19 23.3 °C 14.6 °C 1018.8 hPa WSW 6.4 km/h 8 km/h 58% 0 mm
17:24 23.2 °C 14.8 °C 1018.5 hPa West 3.2 km/h 9.7 km/h 59% 0 mm
17:29 23.1 °C 14.9 °C 1018.5 hPa SSW 8 km/h 9.7 km/h 60% 0 mm
17:34 22.9 °C 14.7 °C 1018.5 hPa SW 9.7 km/h 14.5 km/h 60% 0 mm
17:39 22.8 °C 14.6 °C 1018.5 hPa WNW 9.7 km/h 16.1 km/h 60% 0 mm
17:44 22.7 °C 14.8 °C 1018.5 hPa WSW 8 km/h 9.7 km/h 61% 0 mm
17:49 22.6 °C 14.9 °C 1018.5 hPa SW 4.8 km/h 8 km/h 62% 0 mm
17:54 22.6 °C 15.2 °C 1018.5 hPa WSW 4.8 km/h 4.8 km/h 63% 0 mm
17:59 22.6 °C 14.7 °C 1018.5 hPa WSW 4.8 km/h 14.5 km/h 61% 0 mm
18:04 22.4 °C 14.8 °C 1018.5 hPa West 3.2 km/h 8 km/h 62% 0 mm
18:09 22.4 °C 15.1 °C 1018.8 hPa WSW 4.8 km/h 8 km/h 63% 0 mm
18:14 22.4 °C 15 °C 1018.8 hPa SW 4.8 km/h 6.4 km/h 63% 0 mm
18:19 22.4 °C 15 °C 1018.8 hPa SW 4.8 km/h 8 km/h 63% 0 mm
18:24 22.4 °C 15 °C 1018.8 hPa WSW 4.8 km/h 4.8 km/h 63% 0 mm
18:29 22.4 °C 15.1 °C 1018.8 hPa SW 9.7 km/h 9.7 km/h 63% 0 mm
18:34 22.3 °C 14.9 °C 1018.8 hPa SW 6.4 km/h 9.7 km/h 63% 0 mm
18:39 22.3 °C 14.9 °C 1018.8 hPa SW 8 km/h 9.7 km/h 63% 0 mm
18:44 22.3 °C 15.2 °C 1018.8 hPa SSW 3.2 km/h 6.4 km/h 64% 0 mm
18:49 22.2 °C 14.8 °C 1018.8 hPa SSW 6.4 km/h 8 km/h 63% 0 mm
18:54 22.1 °C 15.2 °C 1018.8 hPa SW 6.4 km/h 6.4 km/h 65% 0 mm
18:59 22 °C 15.1 °C 1018.8 hPa SSW 3.2 km/h 6.4 km/h 65% 0 mm
19:04 21.8 °C 14.9 °C 1018.8 hPa South 4.8 km/h 4.8 km/h 65% 0 mm
19:09 21.8 °C 14.9 °C 1018.8 hPa South 1.6 km/h 3.2 km/h 65% 0 mm
19:15 21.7 °C 14.8 °C 1018.8 hPa SSW 1.6 km/h 3.2 km/h 65% 0 mm
19:20 21.5 °C 14.7 °C 1018.8 hPa WSW 1.6 km/h 1.6 km/h 65% 0 mm
19:25 21.3 °C 14.9 °C 1018.8 hPa Calm   1.6 km/h 67% 0 mm
19:30 21.1 °C 14.7 °C 1018.8 hPa Calm     67% 0 mm
19:35 20.9 °C 14.6 °C 1018.8 hPa SW 1.6 km/h 1.6 km/h 67% 0 mm
19:40 20.9 °C 14.6 °C 1018.8 hPa Calm   1.6 km/h 67% 0 mm
19:45 20.8 °C 14.7 °C 1018.8 hPa Calm     68% 0 mm
19:50 20.7 °C 14.6 °C 1018.8 hPa Calm   1.6 km/h 68% 0 mm
19:55 20.6 °C 14.7 °C 1018.8 hPa Calm     69% 0 mm
20:00 20.4 °C 14.6 °C 1018.8 hPa Calm     69% 0 mm
20:05 20.3 °C 14.7 °C 1018.8 hPa Calm     70% 0 mm
20:10 20.2 °C 14.6 °C 1018.8 hPa Calm     70% 0 mm
20:15 20.1 °C 14.4 °C 1019.2 hPa Calm     70% 0 mm
20:20 20 °C 14.4 °C 1019.2 hPa Calm     70% 0 mm
20:25 19.7 °C 14.1 °C 1019.2 hPa Calm     70% 0 mm
20:30 19.6 °C 14.2 °C 1019.2 hPa Calm     71% 0 mm
20:35 19.7 °C 14.3 °C 1019.2 hPa Calm     71% 0 mm
20:36 19.7 °C 14.1 °C 1019.2 hPa Calm     70% 0 mm
20:41 19.9 °C 14.3 °C 1019.2 hPa Calm     70% 0 mm
20:46 19.9 °C 14.1 °C 1019.2 hPa Calm     69% 0 mm
20:51 19.9 °C 14.1 °C 1019.2 hPa Calm     69% 0 mm
20:56 19.9 °C 14.1 °C 1019.2 hPa Calm     69% 0 mm
21:01 19.9 °C 14.1 °C 1019.2 hPa Calm     69% 0 mm
21:06 19.9 °C 14.1 °C 1019.2 hPa Calm     69% 0 mm
21:11 19.7 °C 14.1 °C 1019.2 hPa Calm     70% 0 mm
21:16 19.5 °C 14.1 °C 1019.5 hPa Calm     71% 0 mm
21:21 19.3 °C 14.3 °C 1019.5 hPa Calm     73% 0 mm
21:26 19.2 °C 14.2 °C 1019.5 hPa Calm     73% 0 mm
21:31 19.3 °C 14.2 °C 1019.5 hPa Calm     72% 0 mm
21:36 19.2 °C 14.2 °C 1019.5 hPa Calm     73% 0 mm
21:41 18.9 °C 14 °C 1019.5 hPa Calm     73% 0 mm
21:46 18.9 °C 14 °C 1019.5 hPa Calm     73% 0 mm
21:51 19.2 °C 14.3 °C 1019.5 hPa Calm     73% 0 mm
21:56 19.1 °C 14.4 °C 1019.5 hPa ESE 1.6 km/h 1.6 km/h 74% 0 mm
22:01 18.7 °C 14.4 °C 1019.5 hPa ESE 1.6 km/h 1.6 km/h 76% 0 mm
22:06 18.8 °C 14.1 °C 1019.5 hPa East 3.2 km/h 3.2 km/h 74% 0 mm
22:11 19.1 °C 14.2 °C 1019.5 hPa East 3.2 km/h 3.2 km/h 73% 0 mm
22:16 19 °C 14.1 °C 1019.5 hPa Calm   1.6 km/h 73% 0 mm
22:21 18.8 °C 14.1 °C 1019.5 hPa East 1.6 km/h 1.6 km/h 74% 0 mm
22:26 18.7 °C 14.2 °C 1019.5 hPa East 3.2 km/h 3.2 km/h 75% 0 mm
22:31 18.8 °C 14.1 °C 1019.5 hPa East 3.2 km/h 3.2 km/h 74% 0 mm
22:36 18.9 °C 14.2 °C 1019.5 hPa East 1.6 km/h 3.2 km/h 74% 0 mm
22:42 18.8 °C 14.1 °C 1019.5 hPa East 1.6 km/h 1.6 km/h 74% 0 mm
22:47 18.8 °C 14.1 °C 1019.5 hPa ESE 3.2 km/h 3.2 km/h 74% 0 mm
22:52 18.8 °C 14.1 °C 1019.5 hPa ESE 3.2 km/h 4.8 km/h 74% 0 mm
22:57 18.5 °C 14 °C 1019.5 hPa ESE 3.2 km/h 4.8 km/h 75% 0 mm
23:02 18.3 °C 14 °C 1019.5 hPa ESE 4.8 km/h 4.8 km/h 76% 0 mm
23:07 18.3 °C 14.2 °C 1019.5 hPa ESE 4.8 km/h 4.8 km/h 77% 0 mm
23:12 18.4 °C 14.1 °C 1019.5 hPa East 3.2 km/h 4.8 km/h 76% 0 mm
23:17 18.4 °C 14.1 °C 1019.5 hPa ESE 3.2 km/h 4.8 km/h 76% 0 mm
23:22 18.4 °C 14.1 °C 1019.5 hPa East 3.2 km/h 4.8 km/h 76% 0 mm
23:27 18.3 °C 14.1 °C 1019.5 hPa East 3.2 km/h 3.2 km/h 76% 0 mm
23:32 18.3 °C 14.1 °C 1019.5 hPa East 3.2 km/h 3.2 km/h 76% 0 mm
23:37 18.4 °C 14.1 °C 1019.5 hPa East 3.2 km/h 3.2 km/h 76% 0 mm
23:42 18.4 °C 14.2 °C 1019.5 hPa East 1.6 km/h 1.6 km/h 76% 0 mm
23:47 18.4 °C 14.2 °C 1019.5 hPa Calm   1.6 km/h 76% 0 mm
23:52 18.3 °C 14.1 °C 1019.5 hPa Calm   1.6 km/h 76% 0 mm
23:57 17.9 °C 13.9 °C 1019.5 hPa East 1.6 km/h 1.6 km/h 77% 0 mm
Compliments of Weather Underground